Main page
METAR-TAF:

METAR-TAF

Airports :

Chengdu, China

Chengdu Shuangliu International Airport

latitude: 30-40N, longitude: 104-01E, elevation: 508 m

Current weather observation

The report was made 57 minutes ago, at 21:00 UTC
Wind 2 kt from the South/Southwest
Temperature 4°C
Humidity 93%
Pressure 1018 hPa
Visibility 10 km or more
no clouds below 1500 m and no cumulonimbus

METAR: ZUUU 192100Z 20001MPS CAVOK 04/03 Q1018 NOSIG

Time: 05:57 (21:57 UTC)

Forecast

The report was made 7 hours and 50 minutes ago, at 14:07 UTC
Forecast valid from 19 at 18 UTC to 20 at 18 UTC
Wind 6 kt from the Southwest
Visibility: 5000 m
Scattered clouds at a height of 5000 ft
mist

TAF: ZUUU 191407Z 1918/2018 22003MPS 5000 BR SCT050 TX16/2007Z TN06/1923Z

Weather observations and forecasts of more than 4000 airports (METAR and TAF reports).

The available stations are represented by yellow and red dots on the map.

Hover mouse over dot to see the name of the station.

Then click to see weather observations and forecasts.

To change the map : click on the green buttons with a black cross to zoom in, on the green button with a dash to zoom out, or on the green arrows for adjacent maps.


METAR-TAF: